sensor_id;sensor_type;location;lat;lon;timestamp;P1;durP1;ratioP1;P2;durP2;ratioP2
30462;SDS011;17256;43.618;25.336;2022-11-20T00:00:01;27.87;;;22.30;;
30462;SDS011;17256;43.618;25.336;2022-11-20T00:03:59;29.87;;;21.97;;
30462;SDS011;17256;43.618;25.336;2022-11-20T00:11:50;30.57;;;22.23;;
30462;SDS011;17256;43.618;25.336;2022-11-20T00:15:44;30.20;;;24.50;;
30462;SDS011;17256;43.618;25.336;2022-11-20T00:28:50;34.10;;;25.07;;
30462;SDS011;17256;43.618;25.336;2022-11-20T00:36:00;35.23;;;27.07;;
30462;SDS011;17256;43.618;25.336;2022-11-20T00:46:56;42.83;;;29.53;;
30462;SDS011;17256;43.618;25.336;2022-11-20T01:02:26;43.40;;;31.13;;
30462;SDS011;17256;43.618;25.336;2022-11-20T01:06:15;46.00;;;32.97;;
30462;SDS011;17256;43.618;25.336;2022-11-20T01:17:30;56.27;;;38.13;;
30462;SDS011;17256;43.618;25.336;2022-11-20T01:21:20;55.33;;;37.80;;
30462;SDS011;17256;43.618;25.336;2022-11-20T01:25:27;52.47;;;36.13;;
30462;SDS011;17256;43.618;25.336;2022-11-20T01:29:39;52.87;;;36.97;;
30462;SDS011;17256;43.618;25.336;2022-11-20T01:33:02;52.97;;;38.03;;
30462;SDS011;17256;43.618;25.336;2022-11-20T01:39:21;51.07;;;35.73;;
30462;SDS011;17256;43.618;25.336;2022-11-20T01:42:31;54.20;;;37.87;;
30462;SDS011;17256;43.618;25.336;2022-11-20T01:55:36;50.57;;;37.07;;
30462;SDS011;17256;43.618;25.336;2022-11-20T01:58:27;50.63;;;36.83;;
30462;SDS011;17256;43.618;25.336;2022-11-20T02:01:32;51.90;;;36.90;;
30462;SDS011;17256;43.618;25.336;2022-11-20T02:04:08;52.33;;;37.63;;
30462;SDS011;17256;43.618;25.336;2022-11-20T02:06:43;52.00;;;37.47;;
30462;SDS011;17256;43.618;25.336;2022-11-20T02:09:27;51.77;;;37.37;;
30462;SDS011;17256;43.618;25.336;2022-11-20T02:12:16;55.37;;;39.40;;
30462;SDS011;17256;43.618;25.336;2022-11-20T02:15:28;59.57;;;38.67;;
30462;SDS011;17256;43.618;25.336;2022-11-20T02:21:48;54.23;;;37.43;;
30462;SDS011;17256;43.618;25.336;2022-11-20T02:25:02;54.37;;;39.00;;
30462;SDS011;17256;43.618;25.336;2022-11-20T02:31:40;52.87;;;37.37;;
30462;SDS011;17256;43.618;25.336;2022-11-20T02:38:37;55.57;;;39.83;;
30462;SDS011;17256;43.618;25.336;2022-11-20T02:42:01;53.43;;;38.40;;
30462;SDS011;17256;43.618;25.336;2022-11-20T02:53:50;55.37;;;39.37;;
30462;SDS011;17256;43.618;25.336;2022-11-20T03:00:56;54.60;;;37.70;;
30462;SDS011;17256;43.618;25.336;2022-11-20T03:03:39;51.57;;;39.13;;
30462;SDS011;17256;43.618;25.336;2022-11-20T03:07:17;53.40;;;38.90;;
30462;SDS011;17256;43.618;25.336;2022-11-20T03:10:54;55.90;;;37.67;;
30462;SDS011;17256;43.618;25.336;2022-11-20T03:17:38;56.23;;;39.07;;
30462;SDS011;17256;43.618;25.336;2022-11-20T03:21:17;59.67;;;39.73;;
30462;SDS011;17256;43.618;25.336;2022-11-20T03:24:35;70.80;;;44.13;;
30462;SDS011;17256;43.618;25.336;2022-11-20T03:27:48;76.67;;;41.57;;
30462;SDS011;17256;43.618;25.336;2022-11-20T03:31:10;74.53;;;44.43;;
30462;SDS011;17256;43.618;25.336;2022-11-20T03:34:30;71.93;;;42.17;;
30462;SDS011;17256;43.618;25.336;2022-11-20T03:37:03;81.87;;;45.67;;
30462;SDS011;17256;43.618;25.336;2022-11-20T03:39:45;87.63;;;46.30;;
30462;SDS011;17256;43.618;25.336;2022-11-20T03:53:12;56.80;;;29.17;;
30462;SDS011;17256;43.618;25.336;2022-11-20T04:04:56;64.70;;;30.00;;
30462;SDS011;17256;43.618;25.336;2022-11-20T04:16:02;94.90;;;35.63;;
30462;SDS011;17256;43.618;25.336;2022-11-20T04:19:33;100.53;;;37.20;;
30462;SDS011;17256;43.618;25.336;2022-11-20T04:22:59;110.07;;;35.00;;
30462;SDS011;17256;43.618;25.336;2022-11-20T04:31:03;82.20;;;34.30;;
30462;SDS011;17256;43.618;25.336;2022-11-20T04:35:01;93.70;;;36.63;;
30462;SDS011;17256;43.618;25.336;2022-11-20T04:50:32;69.67;;;35.80;;
30462;SDS011;17256;43.618;25.336;2022-11-20T05:01:50;54.20;;;32.77;;
30462;SDS011;17256;43.618;25.336;2022-11-20T05:21:20;51.93;;;34.47;;
30462;SDS011;17256;43.618;25.336;2022-11-20T06:03:19;58.30;;;36.63;;
30462;SDS011;17256;43.618;25.336;2022-11-20T06:57:03;43.77;;;28.43;;
30462;SDS011;17256;43.618;25.336;2022-11-20T07:01:15;47.97;;;30.30;;
30462;SDS011;17256;43.618;25.336;2022-11-20T07:12:03;307.10;;;156.80;;
30462;SDS011;17256;43.618;25.336;2022-11-20T07:31:11;45.17;;;30.73;;
30462;SDS011;17256;43.618;25.336;2022-11-20T07:33:38;46.83;;;32.37;;
30462;SDS011;17256;43.618;25.336;2022-11-20T07:36:03;47.93;;;32.33;;
30462;SDS011;17256;43.618;25.336;2022-11-20T07:38:30;43.70;;;29.47;;
30462;SDS011;17256;43.618;25.336;2022-11-20T07:41:05;39.80;;;28.07;;
30462;SDS011;17256;43.618;25.336;2022-11-20T07:43:40;38.87;;;28.33;;
30462;SDS011;17256;43.618;25.336;2022-11-20T07:46:33;40.80;;;28.17;;
30462;SDS011;17256;43.618;25.336;2022-11-20T07:50:01;40.90;;;26.17;;
30462;SDS011;17256;43.618;25.336;2022-11-20T07:52:32;43.07;;;25.63;;
30462;SDS011;17256;43.618;25.336;2022-11-20T07:55:14;40.53;;;27.97;;
30462;SDS011;17256;43.618;25.336;2022-11-20T07:57:53;37.37;;;26.07;;
30462;SDS011;17256;43.618;25.336;2022-11-20T08:00:37;39.87;;;28.33;;
30462;SDS011;17256;43.618;25.336;2022-11-20T08:03:08;43.23;;;29.10;;
30462;SDS011;17256;43.618;25.336;2022-11-20T08:08:18;45.00;;;31.60;;
30462;SDS011;17256;43.618;25.336;2022-11-20T08:10:58;44.80;;;29.40;;
30462;SDS011;17256;43.618;25.336;2022-11-20T08:14:10;45.47;;;26.60;;
30462;SDS011;17256;43.618;25.336;2022-11-20T08:16:47;42.83;;;26.10;;
30462;SDS011;17256;43.618;25.336;2022-11-20T08:20:21;42.40;;;25.97;;
30462;SDS011;17256;43.618;25.336;2022-11-20T08:23:06;45.40;;;29.47;;
30462;SDS011;17256;43.618;25.336;2022-11-20T08:30:11;53.40;;;29.97;;
30462;SDS011;17256;43.618;25.336;2022-11-20T08:34:16;47.30;;;30.50;;
30462;SDS011;17256;43.618;25.336;2022-11-20T08:38:01;45.53;;;29.60;;
30462;SDS011;17256;43.618;25.336;2022-11-20T08:40:33;47.80;;;30.43;;
30462;SDS011;17256;43.618;25.336;2022-11-20T08:49:33;37.10;;;26.47;;
30462;SDS011;17256;43.618;25.336;2022-11-20T08:52:25;34.10;;;23.80;;
30462;SDS011;17256;43.618;25.336;2022-11-20T08:54:54;28.10;;;22.87;;
30462;SDS011;17256;43.618;25.336;2022-11-20T08:57:27;33.50;;;26.63;;
30462;SDS011;17256;43.618;25.336;2022-11-20T08:59:54;30.00;;;23.17;;
30462;SDS011;17256;43.618;25.336;2022-11-20T09:02:23;43.13;;;32.27;;
30462;SDS011;17256;43.618;25.336;2022-11-20T09:04:52;42.17;;;29.00;;
30462;SDS011;17256;43.618;25.336;2022-11-20T09:10:59;42.53;;;27.67;;
30462;SDS011;17256;43.618;25.336;2022-11-20T09:13:44;45.43;;;29.47;;
30462;SDS011;17256;43.618;25.336;2022-11-20T09:17:10;49.80;;;39.50;;
30462;SDS011;17256;43.618;25.336;2022-11-20T09:20:02;39.00;;;28.30;;
30462;SDS011;17256;43.618;25.336;2022-11-20T09:22:44;39.93;;;26.70;;
30462;SDS011;17256;43.618;25.336;2022-11-20T09:25:22;49.73;;;33.47;;
30462;SDS011;17256;43.618;25.336;2022-11-20T09:28:06;43.00;;;28.43;;
30462;SDS011;17256;43.618;25.336;2022-11-20T09:30:53;42.07;;;31.20;;
30462;SDS011;17256;43.618;25.336;2022-11-20T09:34:39;44.03;;;33.03;;
30462;SDS011;17256;43.618;25.336;2022-11-20T09:37:13;44.40;;;29.27;;
30462;SDS011;17256;43.618;25.336;2022-11-20T09:45:06;39.63;;;26.57;;
30462;SDS011;17256;43.618;25.336;2022-11-20T09:57:09;42.97;;;30.03;;
30462;SDS011;17256;43.618;25.336;2022-11-20T10:00:06;39.27;;;27.47;;
30462;SDS011;17256;43.618;25.336;2022-11-20T10:06:13;41.17;;;30.23;;
30462;SDS011;17256;43.618;25.336;2022-11-20T10:21:15;39.63;;;29.30;;
30462;SDS011;17256;43.618;25.336;2022-11-20T10:30:27;41.07;;;27.80;;
30462;SDS011;17256;43.618;25.336;2022-11-20T10:33:00;36.77;;;26.20;;
30462;SDS011;17256;43.618;25.336;2022-11-20T10:38:54;37.77;;;26.80;;
30462;SDS011;17256;43.618;25.336;2022-11-20T10:41:40;39.97;;;28.93;;
30462;SDS011;17256;43.618;25.336;2022-11-20T10:47:17;41.37;;;28.63;;
30462;SDS011;17256;43.618;25.336;2022-11-20T10:49:48;43.17;;;29.80;;
30462;SDS011;17256;43.618;25.336;2022-11-20T10:52:40;39.27;;;29.03;;
30462;SDS011;17256;43.618;25.336;2022-11-20T10:56:05;41.37;;;27.27;;
30462;SDS011;17256;43.618;25.336;2022-11-20T11:03:52;43.63;;;32.73;;
30462;SDS011;17256;43.618;25.336;2022-11-20T11:06:39;56.87;;;40.00;;
30462;SDS011;17256;43.618;25.336;2022-11-20T11:09:24;48.97;;;34.20;;
30462;SDS011;17256;43.618;25.336;2022-11-20T11:12:06;45.13;;;34.67;;
30462;SDS011;17256;43.618;25.336;2022-11-20T11:17:38;53.47;;;38.83;;
30462;SDS011;17256;43.618;25.336;2022-11-20T11:20:21;49.93;;;35.03;;
30462;SDS011;17256;43.618;25.336;2022-11-20T11:22:51;50.77;;;36.33;;
30462;SDS011;17256;43.618;25.336;2022-11-20T11:25:19;54.60;;;40.77;;
30462;SDS011;17256;43.618;25.336;2022-11-20T11:27:50;46.97;;;35.90;;
30462;SDS011;17256;43.618;25.336;2022-11-20T11:35:04;80.37;;;49.43;;
30462;SDS011;17256;43.618;25.336;2022-11-20T11:46:33;45.10;;;33.43;;
30462;SDS011;17256;43.618;25.336;2022-11-20T11:53:38;51.73;;;35.57;;
30462;SDS011;17256;43.618;25.336;2022-11-20T12:05:47;41.50;;;32.60;;
30462;SDS011;17256;43.618;25.336;2022-11-20T12:16:39;49.70;;;34.27;;
30462;SDS011;17256;43.618;25.336;2022-11-20T12:19:16;72.43;;;54.27;;
30462;SDS011;17256;43.618;25.336;2022-11-20T12:54:20;39.37;;;29.93;;
30462;SDS011;17256;43.618;25.336;2022-11-20T12:57:09;56.67;;;33.53;;
30462;SDS011;17256;43.618;25.336;2022-11-20T13:08:39;50.23;;;35.37;;
30462;SDS011;17256;43.618;25.336;2022-11-20T13:11:09;51.73;;;37.93;;
30462;SDS011;17256;43.618;25.336;2022-11-20T13:20:32;60.37;;;46.63;;
30462;SDS011;17256;43.618;25.336;2022-11-20T13:27:54;48.07;;;36.50;;
30462;SDS011;17256;43.618;25.336;2022-11-20T13:34:25;72.47;;;57.97;;
30462;SDS011;17256;43.618;25.336;2022-11-20T13:37:23;50.10;;;38.77;;
30462;SDS011;17256;43.618;25.336;2022-11-20T13:42:54;58.33;;;47.47;;
30462;SDS011;17256;43.618;25.336;2022-11-20T13:46:00;66.73;;;50.27;;
30462;SDS011;17256;43.618;25.336;2022-11-20T13:48:55;58.07;;;42.03;;
30462;SDS011;17256;43.618;25.336;2022-11-20T14:07:14;26.80;;;21.87;;
30462;SDS011;17256;43.618;25.336;2022-11-20T14:13:21;40.00;;;29.37;;
30462;SDS011;17256;43.618;25.336;2022-11-20T14:17:23;30.47;;;25.33;;
30462;SDS011;17256;43.618;25.336;2022-11-20T14:20:12;66.03;;;53.27;;
30462;SDS011;17256;43.618;25.336;2022-11-20T14:42:01;136.40;;;94.67;;
30462;SDS011;17256;43.618;25.336;2022-11-20T14:45:50;403.57;;;153.73;;
30462;SDS011;17256;43.618;25.336;2022-11-20T14:49:00;1999.90;;;458.13;;
30462;SDS011;17256;43.618;25.336;2022-11-20T14:51:42;931.63;;;347.97;;
30462;SDS011;17256;43.618;25.336;2022-11-20T14:56:42;133.80;;;100.53;;
30462;SDS011;17256;43.618;25.336;2022-11-20T14:59:29;88.90;;;69.00;;
30462;SDS011;17256;43.618;25.336;2022-11-20T15:01:57;46.80;;;37.03;;
30462;SDS011;17256;43.618;25.336;2022-11-20T15:04:29;40.00;;;35.40;;
30462;SDS011;17256;43.618;25.336;2022-11-20T15:06:55;38.30;;;33.50;;
30462;SDS011;17256;43.618;25.336;2022-11-20T15:09:24;29.27;;;26.13;;
30462;SDS011;17256;43.618;25.336;2022-11-20T15:12:16;40.83;;;33.47;;
30462;SDS011;17256;43.618;25.336;2022-11-20T15:14:49;34.10;;;30.37;;
30462;SDS011;17256;43.618;25.336;2022-11-20T15:17:15;43.77;;;36.50;;
30462;SDS011;17256;43.618;25.336;2022-11-20T15:19:41;49.23;;;36.73;;
30462;SDS011;17256;43.618;25.336;2022-11-20T15:22:09;62.37;;;44.23;;
30462;SDS011;17256;43.618;25.336;2022-11-20T15:24:45;71.63;;;52.80;;
30462;SDS011;17256;43.618;25.336;2022-11-20T15:27:11;59.17;;;48.20;;
30462;SDS011;17256;43.618;25.336;2022-11-20T15:29:50;61.00;;;52.77;;
30462;SDS011;17256;43.618;25.336;2022-11-20T15:33:25;75.20;;;57.87;;
30462;SDS011;17256;43.618;25.336;2022-11-20T15:35:52;74.17;;;60.33;;
30462;SDS011;17256;43.618;25.336;2022-11-20T15:41:22;46.87;;;37.47;;
30462;SDS011;17256;43.618;25.336;2022-11-20T15:44:24;33.47;;;27.87;;
30462;SDS011;17256;43.618;25.336;2022-11-20T15:47:34;31.40;;;23.00;;
30462;SDS011;17256;43.618;25.336;2022-11-20T15:51:37;34.47;;;30.70;;
30462;SDS011;17256;43.618;25.336;2022-11-20T15:54:22;25.57;;;22.60;;
30462;SDS011;17256;43.618;25.336;2022-11-20T15:57:05;31.27;;;22.93;;
30462;SDS011;17256;43.618;25.336;2022-11-20T15:59:48;23.47;;;18.53;;
30462;SDS011;17256;43.618;25.336;2022-11-20T16:02:33;21.30;;;16.87;;
30462;SDS011;17256;43.618;25.336;2022-11-20T16:05:16;18.97;;;14.23;;
30462;SDS011;17256;43.618;25.336;2022-11-20T16:19:16;46.70;;;36.40;;
30462;SDS011;17256;43.618;25.336;2022-11-20T16:22:01;63.67;;;50.63;;
30462;SDS011;17256;43.618;25.336;2022-11-20T16:28:20;23.53;;;16.23;;
30462;SDS011;17256;43.618;25.336;2022-11-20T16:31:48;18.03;;;13.50;;
30462;SDS011;17256;43.618;25.336;2022-11-20T16:34:28;33.10;;;20.80;;
30462;SDS011;17256;43.618;25.336;2022-11-20T16:37:24;25.83;;;17.40;;
30462;SDS011;17256;43.618;25.336;2022-11-20T16:57:32;22.50;;;19.33;;
30462;SDS011;17256;43.618;25.336;2022-11-20T17:01:35;30.13;;;24.53;;
30462;SDS011;17256;43.618;25.336;2022-11-20T17:04:31;27.60;;;20.20;;
30462;SDS011;17256;43.618;25.336;2022-11-20T17:08:36;31.10;;;20.10;;
30462;SDS011;17256;43.618;25.336;2022-11-20T17:12:48;35.30;;;22.37;;
30462;SDS011;17256;43.618;25.336;2022-11-20T17:15:44;28.47;;;19.00;;
30462;SDS011;17256;43.618;25.336;2022-11-20T17:18:38;27.50;;;18.07;;
30462;SDS011;17256;43.618;25.336;2022-11-20T17:21:21;21.93;;;17.47;;
30462;SDS011;17256;43.618;25.336;2022-11-20T17:25:31;23.90;;;14.97;;
30462;SDS011;17256;43.618;25.336;2022-11-20T17:28:33;22.33;;;16.10;;
30462;SDS011;17256;43.618;25.336;2022-11-20T17:31:16;28.93;;;17.83;;
30462;SDS011;17256;43.618;25.336;2022-11-20T17:33:57;33.77;;;20.20;;
30462;SDS011;17256;43.618;25.336;2022-11-20T17:36:39;28.83;;;18.10;;
30462;SDS011;17256;43.618;25.336;2022-11-20T17:39:12;34.63;;;18.20;;
30462;SDS011;17256;43.618;25.336;2022-11-20T17:42:02;43.10;;;23.27;;
30462;SDS011;17256;43.618;25.336;2022-11-20T17:44:51;38.90;;;21.63;;
30462;SDS011;17256;43.618;25.336;2022-11-20T17:47:38;44.63;;;22.13;;
30462;SDS011;17256;43.618;25.336;2022-11-20T17:50:25;31.77;;;18.03;;
30462;SDS011;17256;43.618;25.336;2022-11-20T17:52:53;24.77;;;17.63;;
30462;SDS011;17256;43.618;25.336;2022-11-20T17:55:23;25.20;;;18.60;;
30462;SDS011;17256;43.618;25.336;2022-11-20T17:58:27;23.40;;;15.07;;
30462;SDS011;17256;43.618;25.336;2022-11-20T18:00:55;28.87;;;18.47;;
30462;SDS011;17256;43.618;25.336;2022-11-20T18:03:40;28.00;;;15.63;;
30462;SDS011;17256;43.618;25.336;2022-11-20T18:08:47;19.30;;;13.73;;
30462;SDS011;17256;43.618;25.336;2022-11-20T18:11:16;24.57;;;18.20;;
30462;SDS011;17256;43.618;25.336;2022-11-20T18:13:50;18.03;;;11.97;;
30462;SDS011;17256;43.618;25.336;2022-11-20T18:16:51;11.00;;;8.83;;
30462;SDS011;17256;43.618;25.336;2022-11-20T18:19:24;24.70;;;16.43;;
30462;SDS011;17256;43.618;25.336;2022-11-20T18:21:56;28.70;;;14.70;;
30462;SDS011;17256;43.618;25.336;2022-11-20T18:24:43;29.03;;;17.97;;
30462;SDS011;17256;43.618;25.336;2022-11-20T18:27:13;12.13;;;9.57;;
30462;SDS011;17256;43.618;25.336;2022-11-20T18:29:46;14.13;;;10.70;;
30462;SDS011;17256;43.618;25.336;2022-11-20T18:32:19;13.90;;;12.40;;
30462;SDS011;17256;43.618;25.336;2022-11-20T18:35:03;14.07;;;11.20;;
30462;SDS011;17256;43.618;25.336;2022-11-20T18:37:44;9.70;;;7.90;;
30462;SDS011;17256;43.618;25.336;2022-11-20T18:40:30;8.30;;;7.43;;
30462;SDS011;17256;43.618;25.336;2022-11-20T18:43:31;7.93;;;7.20;;
30462;SDS011;17256;43.618;25.336;2022-11-20T18:50:34;10.03;;;8.03;;
30462;SDS011;17256;43.618;25.336;2022-11-20T18:53:40;9.47;;;8.47;;
30462;SDS011;17256;43.618;25.336;2022-11-20T18:56:30;9.40;;;8.47;;
30462;SDS011;17256;43.618;25.336;2022-11-20T18:59:32;9.10;;;7.63;;
30462;SDS011;17256;43.618;25.336;2022-11-20T19:07:11;8.23;;;7.37;;
30462;SDS011;17256;43.618;25.336;2022-11-20T19:09:43;8.33;;;7.33;;
30462;SDS011;17256;43.618;25.336;2022-11-20T19:12:18;12.23;;;10.07;;
30462;SDS011;17256;43.618;25.336;2022-11-20T19:15:31;8.43;;;7.20;;
30462;SDS011;17256;43.618;25.336;2022-11-20T19:18:01;7.20;;;6.37;;
30462;SDS011;17256;43.618;25.336;2022-11-20T19:29:58;6.07;;;5.50;;
30462;SDS011;17256;43.618;25.336;2022-11-20T19:44:22;6.13;;;5.07;;
30462;SDS011;17256;43.618;25.336;2022-11-20T19:47:50;7.90;;;7.07;;
30462;SDS011;17256;43.618;25.336;2022-11-20T19:50:16;6.87;;;6.13;;
30462;SDS011;17256;43.618;25.336;2022-11-20T19:52:41;10.23;;;7.83;;
30462;SDS011;17256;43.618;25.336;2022-11-20T19:55:07;8.03;;;5.93;;
30462;SDS011;17256;43.618;25.336;2022-11-20T19:57:34;9.70;;;7.40;;
30462;SDS011;17256;43.618;25.336;2022-11-20T20:00:01;8.60;;;7.20;;
30462;SDS011;17256;43.618;25.336;2022-11-20T20:02:30;7.33;;;6.63;;
30462;SDS011;17256;43.618;25.336;2022-11-20T20:04:55;8.10;;;5.50;;
30462;SDS011;17256;43.618;25.336;2022-11-20T20:07:22;11.43;;;9.17;;
30462;SDS011;17256;43.618;25.336;2022-11-20T20:09:54;8.40;;;7.17;;
30462;SDS011;17256;43.618;25.336;2022-11-20T20:12:37;8.63;;;7.73;;
30462;SDS011;17256;43.618;25.336;2022-11-20T20:15:07;6.60;;;5.93;;
30462;SDS011;17256;43.618;25.336;2022-11-20T20:17:52;5.93;;;4.83;;
30462;SDS011;17256;43.618;25.336;2022-11-20T20:20:29;6.77;;;5.83;;
30462;SDS011;17256;43.618;25.336;2022-11-20T20:23:05;9.37;;;6.97;;
30462;SDS011;17256;43.618;25.336;2022-11-20T20:25:32;7.30;;;5.53;;
30462;SDS011;17256;43.618;25.336;2022-11-20T20:28:00;7.67;;;5.87;;
30462;SDS011;17256;43.618;25.336;2022-11-20T20:30:26;7.60;;;6.50;;
30462;SDS011;17256;43.618;25.336;2022-11-20T20:32:58;5.40;;;4.87;;
30462;SDS011;17256;43.618;25.336;2022-11-20T20:35:30;6.83;;;5.17;;
30462;SDS011;17256;43.618;25.336;2022-11-20T20:38:06;5.77;;;4.83;;
30462;SDS011;17256;43.618;25.336;2022-11-20T20:40:46;6.83;;;5.27;;
30462;SDS011;17256;43.618;25.336;2022-11-20T20:43:16;7.67;;;5.53;;
30462;SDS011;17256;43.618;25.336;2022-11-20T20:45:48;7.07;;;5.80;;
30462;SDS011;17256;43.618;25.336;2022-11-20T20:48:16;7.90;;;5.83;;
30462;SDS011;17256;43.618;25.336;2022-11-20T20:50:52;10.30;;;6.70;;
30462;SDS011;17256;43.618;25.336;2022-11-20T20:53:21;13.17;;;6.93;;
30462;SDS011;17256;43.618;25.336;2022-11-20T20:55:57;6.60;;;5.03;;
30462;SDS011;17256;43.618;25.336;2022-11-20T20:58:24;6.03;;;5.40;;
30462;SDS011;17256;43.618;25.336;2022-11-20T21:00:50;5.27;;;4.77;;
30462;SDS011;17256;43.618;25.336;2022-11-20T21:03:19;6.93;;;3.47;;
30462;SDS011;17256;43.618;25.336;2022-11-20T21:05:53;10.13;;;6.87;;
30462;SDS011;17256;43.618;25.336;2022-11-20T21:08:22;4.87;;;4.10;;
30462;SDS011;17256;43.618;25.336;2022-11-20T21:10:50;5.73;;;4.47;;
30462;SDS011;17256;43.618;25.336;2022-11-20T21:13:26;7.13;;;5.67;;
30462;SDS011;17256;43.618;25.336;2022-11-20T21:15:54;11.53;;;5.87;;
30462;SDS011;17256;43.618;25.336;2022-11-20T21:18:22;4.83;;;4.43;;
30462;SDS011;17256;43.618;25.336;2022-11-20T21:23:51;4.23;;;3.50;;
30462;SDS011;17256;43.618;25.336;2022-11-20T21:26:21;5.23;;;4.60;;
30462;SDS011;17256;43.618;25.336;2022-11-20T21:28:49;4.43;;;3.53;;
30462;SDS011;17256;43.618;25.336;2022-11-20T21:31:20;5.53;;;4.10;;
30462;SDS011;17256;43.618;25.336;2022-11-20T21:33:48;3.30;;;3.00;;
30462;SDS011;17256;43.618;25.336;2022-11-20T21:36:28;3.63;;;3.33;;
30462;SDS011;17256;43.618;25.336;2022-11-20T21:39:05;3.17;;;2.77;;
30462;SDS011;17256;43.618;25.336;2022-11-20T21:41:34;3.57;;;3.27;;
30462;SDS011;17256;43.618;25.336;2022-11-20T21:44:13;6.33;;;4.23;;
30462;SDS011;17256;43.618;25.336;2022-11-20T21:46:43;2.13;;;1.93;;
30462;SDS011;17256;43.618;25.336;2022-11-20T21:49:40;3.37;;;2.93;;
30462;SDS011;17256;43.618;25.336;2022-11-20T21:52:08;4.07;;;3.60;;
30462;SDS011;17256;43.618;25.336;2022-11-20T21:54:34;5.60;;;3.77;;
30462;SDS011;17256;43.618;25.336;2022-11-20T21:57:02;4.73;;;3.67;;
30462;SDS011;17256;43.618;25.336;2022-11-20T21:59:28;4.57;;;3.33;;
30462;SDS011;17256;43.618;25.336;2022-11-20T22:02:10;3.20;;;2.90;;
30462;SDS011;17256;43.618;25.336;2022-11-20T22:04:42;3.17;;;2.87;;
30462;SDS011;17256;43.618;25.336;2022-11-20T22:07:08;2.73;;;2.53;;
30462;SDS011;17256;43.618;25.336;2022-11-20T22:09:35;3.97;;;2.63;;
30462;SDS011;17256;43.618;25.336;2022-11-20T22:12:07;2.43;;;2.23;;
30462;SDS011;17256;43.618;25.336;2022-11-20T22:14:40;3.30;;;2.60;;
30462;SDS011;17256;43.618;25.336;2022-11-20T22:17:10;4.33;;;3.73;;
30462;SDS011;17256;43.618;25.336;2022-11-20T22:20:15;3.47;;;2.80;;
30462;SDS011;17256;43.618;25.336;2022-11-20T22:22:57;4.23;;;3.83;;
30462;SDS011;17256;43.618;25.336;2022-11-20T22:25:37;3.73;;;3.40;;
30462;SDS011;17256;43.618;25.336;2022-11-20T22:28:09;4.10;;;3.70;;
30462;SDS011;17256;43.618;25.336;2022-11-20T22:30:44;4.73;;;2.83;;
30462;SDS011;17256;43.618;25.336;2022-11-20T22:33:43;2.27;;;2.07;;
30462;SDS011;17256;43.618;25.336;2022-11-20T22:36:19;8.30;;;3.53;;
30462;SDS011;17256;43.618;25.336;2022-11-20T22:39:00;3.40;;;3.07;;
30462;SDS011;17256;43.618;25.336;2022-11-20T22:41:31;4.13;;;2.87;;
30462;SDS011;17256;43.618;25.336;2022-11-20T22:44:02;3.37;;;2.30;;
30462;SDS011;17256;43.618;25.336;2022-11-20T22:46:31;3.80;;;3.50;;
30462;SDS011;17256;43.618;25.336;2022-11-20T22:48:59;5.27;;;3.60;;
30462;SDS011;17256;43.618;25.336;2022-11-20T22:51:31;4.30;;;3.90;;
30462;SDS011;17256;43.618;25.336;2022-11-20T22:54:18;3.60;;;3.03;;
30462;SDS011;17256;43.618;25.336;2022-11-20T22:56:44;3.83;;;3.30;;
30462;SDS011;17256;43.618;25.336;2022-11-20T22:59:11;3.83;;;3.53;;
30462;SDS011;17256;43.618;25.336;2022-11-20T23:01:39;3.00;;;2.80;;
30462;SDS011;17256;43.618;25.336;2022-11-20T23:04:09;3.27;;;2.97;;
30462;SDS011;17256;43.618;25.336;2022-11-20T23:06:36;4.00;;;2.90;;
30462;SDS011;17256;43.618;25.336;2022-11-20T23:09:04;4.37;;;2.30;;
30462;SDS011;17256;43.618;25.336;2022-11-20T23:11:31;3.77;;;3.33;;
30462;SDS011;17256;43.618;25.336;2022-11-20T23:14:01;3.00;;;2.70;;
30462;SDS011;17256;43.618;25.336;2022-11-20T23:16:36;3.03;;;2.73;;
30462;SDS011;17256;43.618;25.336;2022-11-20T23:19:07;4.33;;;2.63;;
30462;SDS011;17256;43.618;25.336;2022-11-20T23:21:35;4.80;;;2.73;;
30462;SDS011;17256;43.618;25.336;2022-11-20T23:24:02;2.80;;;2.50;;
30462;SDS011;17256;43.618;25.336;2022-11-20T23:26:29;3.70;;;2.77;;
30462;SDS011;17256;43.618;25.336;2022-11-20T23:29:09;5.10;;;3.70;;
30462;SDS011;17256;43.618;25.336;2022-11-20T23:31:39;3.43;;;3.13;;
30462;SDS011;17256;43.618;25.336;2022-11-20T23:34:05;7.37;;;4.47;;
30462;SDS011;17256;43.618;25.336;2022-11-20T23:36:30;4.67;;;3.73;;
30462;SDS011;17256;43.618;25.336;2022-11-20T23:38:57;5.20;;;4.27;;
30462;SDS011;17256;43.618;25.336;2022-11-20T23:41:22;10.10;;;4.70;;
30462;SDS011;17256;43.618;25.336;2022-11-20T23:43:49;6.97;;;5.07;;
30462;SDS011;17256;43.618;25.336;2022-11-20T23:46:16;6.20;;;5.27;;
30462;SDS011;17256;43.618;25.336;2022-11-20T23:48:42;7.07;;;6.37;;
30462;SDS011;17256;43.618;25.336;2022-11-20T23:51:12;8.33;;;6.90;;
30462;SDS011;17256;43.618;25.336;2022-11-20T23:53:38;8.13;;;6.30;;
30462;SDS011;17256;43.618;25.336;2022-11-20T23:56:04;8.57;;;7.53;;
30462;SDS011;17256;43.618;25.336;2022-11-20T23:58:34;7.77;;;6.97;;
